createdAt,value
2022-12-01T00:01:39.073Z,82.46
2022-12-01T00:04:07.629Z,82.54
2022-12-01T00:06:36.895Z,82.73
2022-12-01T00:09:23.863Z,83.02
2022-12-01T00:11:52.452Z,82.82
2022-12-01T00:14:20.999Z,83.20
2022-12-01T00:16:50.017Z,83.27
2022-12-01T00:19:19.082Z,83.60
2022-12-01T00:21:47.671Z,83.89
2022-12-01T00:24:16.401Z,84.20
2022-12-01T00:26:44.981Z,84.37
2022-12-01T00:29:13.596Z,84.37
2022-12-01T00:31:43.455Z,84.24
2022-12-01T00:34:24.674Z,84.04
2022-12-01T00:36:53.251Z,83.76
2022-12-01T00:39:22.614Z,83.57
2022-12-01T00:41:51.137Z,83.74
2022-12-01T00:44:19.740Z,83.91
2022-12-01T00:46:48.287Z,83.76
2022-12-01T00:49:17.071Z,83.33
2022-12-01T00:51:45.584Z,83.60
2022-12-01T00:54:14.232Z,83.81
2022-12-01T00:56:42.981Z,83.97
2022-12-01T00:59:12.205Z,84.09
2022-12-01T01:01:42.154Z,84.18
2022-12-01T01:04:10.760Z,84.23
2022-12-01T01:06:39.313Z,83.71
2022-12-01T01:09:07.801Z,83.63
2022-12-01T01:11:36.714Z,83.42
2022-12-01T01:14:05.947Z,83.55
2022-12-01T01:16:35.309Z,83.44
2022-12-01T01:19:03.884Z,83.15
2022-12-01T01:21:32.731Z,83.84
2022-12-01T01:24:01.337Z,84.38
2022-12-01T01:26:32.280Z,84.55
2022-12-01T01:29:04.155Z,84.60
2022-12-01T01:31:32.919Z,85.03
2022-12-01T01:34:01.749Z,85.34
2022-12-01T01:36:30.491Z,85.65
2022-12-01T01:38:59.443Z,85.90
2022-12-01T01:41:29.106Z,85.86
2022-12-01T01:44:03.034Z,86.05
2022-12-01T01:46:35.672Z,86.30
2022-12-01T01:49:16.528Z,85.86
2022-12-01T01:51:49.476Z,86.26
2022-12-01T01:54:36.332Z,86.17
2022-12-01T01:57:09.976Z,86.37
2022-12-01T01:59:46.224Z,86.42
2022-12-01T02:02:15.379Z,86.08
2022-12-01T02:04:58.933Z,86.15
2022-12-01T02:07:27.524Z,86.18
2022-12-01T02:09:56.581Z,86.41
2022-12-01T02:12:56.557Z,86.47
2022-12-01T02:15:37.232Z,86.75
2022-12-01T02:18:10.547Z,86.64
2022-12-01T02:21:25.470Z,87.25
2022-12-01T02:24:09.005Z,87.27
2022-12-01T02:27:10.529Z,87.34
2022-12-01T02:30:11.087Z,87.46
2022-12-01T02:32:50.085Z,87.34
2022-12-01T02:36:09.169Z,87.12
2022-12-01T02:38:51.897Z,86.48
2022-12-01T02:41:34.552Z,86.76
2022-12-01T02:44:25.140Z,86.86
2022-12-01T02:47:10.774Z,87.48
2022-12-01T02:49:51.148Z,87.37
2022-12-01T02:52:24.078Z,87.59
2022-12-01T02:54:54.132Z,87.68
2022-12-01T02:57:24.441Z,87.98
2022-12-01T02:59:56.083Z,87.54
2022-12-01T03:02:24.917Z,87.23
2022-12-01T03:05:02.719Z,87.26
2022-12-01T03:08:16.147Z,86.98
2022-12-01T03:10:53.924Z,87.30
2022-12-01T03:16:53.416Z,88.14
2022-12-01T03:19:52.986Z,87.70
2022-12-01T03:22:33.702Z,87.57
2022-12-01T03:25:04.138Z,87.84
2022-12-01T03:27:37.852Z,88.11
2022-12-01T03:30:11.009Z,88.61
2022-12-01T03:32:52.707Z,88.52
2022-12-01T03:35:29.255Z,88.80
2022-12-01T03:38:10.841Z,88.76
2022-12-01T03:40:40.536Z,88.98
2022-12-01T03:43:16.208Z,88.77
2022-12-01T03:46:09.343Z,89.06
2022-12-01T03:48:40.560Z,89.32
2022-12-01T03:51:30.607Z,89.46
2022-12-01T03:54:27.193Z,89.33
2022-12-01T03:57:03.846Z,89.70
2022-12-01T03:59:36.086Z,89.66
2022-12-01T04:02:07.362Z,89.35
2022-12-01T04:04:36.171Z,89.26
2022-12-01T04:07:05.288Z,89.38
2022-12-01T04:09:33.752Z,89.24
2022-12-01T04:12:20.603Z,89.15
2022-12-01T04:14:49.126Z,88.79
2022-12-01T04:17:17.574Z,88.76
2022-12-01T04:19:46.371Z,88.92
2022-12-01T04:22:15.175Z,88.73
2022-12-01T04:24:44.064Z,88.69
2022-12-01T04:27:14.090Z,88.82
2022-12-01T04:29:42.627Z,88.41
2022-12-01T04:32:11.350Z,88.59
2022-12-01T04:34:40.223Z,88.90
2022-12-01T04:37:10.170Z,89.02
2022-12-01T04:39:38.860Z,88.54
2022-12-01T04:42:07.400Z,88.18
2022-12-01T04:44:36.347Z,88.03
2022-12-01T04:47:06.978Z,88.08
2022-12-01T04:49:37.430Z,88.41
2022-12-01T04:52:05.959Z,88.35
2022-12-01T04:54:34.437Z,88.28
2022-12-01T04:57:02.921Z,88.36
2022-12-01T04:59:31.584Z,88.51
2022-12-01T05:02:00.271Z,88.54
2022-12-01T05:04:28.894Z,88.32
2022-12-01T05:06:57.442Z,88.10
2022-12-01T05:09:26.023Z,88.27
2022-12-01T05:11:54.656Z,88.45
2022-12-01T05:14:23.162Z,88.17
2022-12-01T05:16:51.785Z,87.90
2022-12-01T05:19:38.631Z,87.77
2022-12-01T05:22:07.219Z,87.68
2022-12-01T05:24:35.817Z,87.54
2022-12-01T05:27:04.458Z,87.74
2022-12-01T05:29:33.210Z,87.53
2022-12-01T05:32:03.235Z,87.40
2022-12-01T05:34:31.984Z,87.59
2022-12-01T05:37:00.517Z,86.73
2022-12-01T05:39:29.100Z,86.30
2022-12-01T05:41:57.669Z,86.37
2022-12-01T05:44:26.472Z,85.89
2022-12-01T05:46:55.283Z,85.81
2022-12-01T05:49:24.028Z,86.19
2022-12-01T05:51:52.719Z,86.41
2022-12-01T05:54:21.392Z,86.32
2022-12-01T05:56:50.071Z,86.05
2022-12-01T05:59:18.835Z,85.73
2022-12-01T06:01:47.417Z,85.48
2022-12-01T06:04:16.449Z,85.09
2022-12-01T06:06:45.658Z,85.10
2022-12-01T06:09:23.945Z,85.37
2022-12-01T06:11:53.087Z,85.36
2022-12-01T06:14:30.206Z,85.44
2022-12-01T06:16:59.406Z,85.55
2022-12-01T06:19:33.939Z,85.50
2022-12-01T06:22:07.941Z,85.61
2022-12-01T06:24:37.391Z,84.57
2022-12-01T06:27:05.935Z,85.17
2022-12-01T06:29:39.090Z,85.12
2022-12-01T06:32:12.125Z,84.60
2022-12-01T06:34:40.921Z,83.75
2022-12-01T06:37:11.990Z,83.51
2022-12-01T06:40:13.567Z,83.25
2022-12-01T06:42:46.791Z,83.40
2022-12-01T06:45:15.939Z,83.36
2022-12-01T06:47:48.437Z,83.34
2022-12-01T06:50:17.203Z,83.45
2022-12-01T06:52:59.275Z,83.30
2022-12-01T06:55:37.103Z,83.07
2022-12-01T06:58:06.619Z,82.92
2022-12-01T07:00:47.729Z,83.08
2022-12-01T07:03:25.638Z,83.05
2022-12-01T07:06:00.649Z,83.01
2022-12-01T07:08:30.851Z,82.99
2022-12-01T07:11:11.986Z,83.35
2022-12-01T07:14:40.295Z,82.97
2022-12-01T07:17:34.165Z,83.12
2022-12-01T07:20:36.375Z,82.97
2022-12-01T07:23:05.819Z,83.27
2022-12-01T07:25:35.143Z,82.92
2022-12-01T07:28:09.555Z,82.76
2022-12-01T07:30:38.617Z,82.73
2022-12-01T07:33:08.954Z,82.67
2022-12-01T07:35:37.754Z,82.70
2022-12-01T07:38:06.726Z,82.11
2022-12-01T07:40:38.195Z,82.37
2022-12-01T07:43:06.819Z,82.56
2022-12-01T07:45:35.536Z,82.35
2022-12-01T07:48:04.305Z,82.33
2022-12-01T07:50:32.968Z,82.26
2022-12-01T07:53:01.501Z,82.20
2022-12-01T07:55:30.281Z,82.00
2022-12-01T07:58:01.915Z,81.68
2022-12-01T08:00:30.489Z,81.13
2022-12-01T08:02:59.189Z,81.61
2022-12-01T08:05:27.671Z,81.27
2022-12-01T08:07:56.373Z,81.49
2022-12-01T08:10:25.726Z,81.60
2022-12-01T08:12:54.545Z,81.91
2022-12-01T08:15:23.419Z,81.27
2022-12-01T08:17:51.962Z,81.57
2022-12-01T08:20:24.086Z,81.64
2022-12-01T08:22:52.867Z,81.58
2022-12-01T08:25:21.421Z,81.51
2022-12-01T08:27:50.017Z,81.58
2022-12-01T08:30:18.701Z,81.52
2022-12-01T08:32:47.300Z,80.45
2022-12-01T08:35:16.443Z,80.65
2022-12-01T08:37:47.931Z,80.73
2022-12-01T08:40:16.675Z,81.14
2022-12-01T08:42:45.310Z,80.71
2022-12-01T08:45:14.293Z,80.52
2022-12-01T08:47:43.010Z,80.40
2022-12-01T08:50:11.919Z,80.72
2022-12-01T08:52:40.709Z,80.67
2022-12-01T08:55:09.849Z,80.70
2022-12-01T08:57:38.429Z,80.48
2022-12-01T09:00:07.974Z,80.26
2022-12-01T09:02:36.744Z,80.60
2022-12-01T09:05:06.272Z,80.47
2022-12-01T09:07:34.851Z,80.25
2022-12-01T09:10:04.013Z,79.76
2022-12-01T09:12:32.605Z,79.65
2022-12-01T09:15:01.306Z,79.80
2022-12-01T09:17:30.009Z,80.01
2022-12-01T09:19:58.600Z,79.79
2022-12-01T09:22:27.103Z,80.05
2022-12-01T09:24:55.736Z,80.65
2022-12-01T09:27:24.483Z,80.95
2022-12-01T09:29:53.058Z,80.81
2022-12-01T09:32:22.522Z,80.64
2022-12-01T09:34:51.276Z,80.88
2022-12-01T09:37:20.193Z,80.90
2022-12-01T09:39:54.502Z,80.69
2022-12-01T09:42:30.900Z,80.81
2022-12-01T09:45:05.257Z,81.27
2022-12-01T09:47:37.977Z,80.66
2022-12-01T09:50:25.460Z,80.28
2022-12-01T09:53:09.180Z,80.56
2022-12-01T09:55:39.742Z,80.49
2022-12-01T09:58:19.148Z,80.62
2022-12-01T10:00:50.603Z,80.67
2022-12-01T10:03:31.255Z,80.27
2022-12-01T10:06:27.255Z,79.89
2022-12-01T10:09:39.537Z,79.87
2022-12-01T10:12:16.127Z,79.93
2022-12-01T10:15:23.323Z,79.99
2022-12-01T10:18:31.062Z,79.85
2022-12-01T10:21:30.214Z,79.94
2022-12-01T10:24:23.741Z,80.18
2022-12-01T10:27:03.230Z,79.33
2022-12-01T10:29:46.508Z,79.79
2022-12-01T10:32:24.657Z,79.90
2022-12-01T10:34:53.314Z,79.79
2022-12-01T10:37:26.215Z,80.09
2022-12-01T10:39:57.572Z,79.79
2022-12-01T10:42:43.247Z,79.92
2022-12-01T10:45:42.211Z,80.09
2022-12-01T10:48:15.709Z,80.09
2022-12-01T10:50:55.832Z,80.46
2022-12-01T10:53:36.043Z,81.02
2022-12-01T10:56:12.219Z,81.19
2022-12-01T10:59:15.065Z,81.28
2022-12-01T11:01:48.576Z,81.05
2022-12-01T11:04:45.817Z,80.76
2022-12-01T11:07:29.030Z,80.87
2022-12-01T11:10:26.691Z,81.29
2022-12-01T11:13:31.173Z,81.71
2022-12-01T11:16:04.669Z,82.09
2022-12-01T11:18:34.136Z,81.83
2022-12-01T11:21:26.901Z,81.57
2022-12-01T11:23:56.972Z,80.94
2022-12-01T11:26:34.755Z,80.82
2022-12-01T11:29:32.002Z,81.21
2022-12-01T11:32:01.803Z,81.07
2022-12-01T11:34:34.697Z,81.56
2022-12-01T11:37:15.981Z,81.50
2022-12-01T11:39:48.123Z,81.12
2022-12-01T11:42:29.349Z,80.70
2022-12-01T11:45:32.988Z,80.63
2022-12-01T11:48:25.917Z,80.27
2022-12-01T11:51:06.357Z,80.75
2022-12-01T11:53:44.604Z,80.67
2022-12-01T11:56:23.801Z,80.52
2022-12-01T11:59:04.336Z,80.25
2022-12-01T12:01:51.313Z,80.45
2022-12-01T12:04:44.373Z,80.88
2022-12-01T12:07:48.037Z,80.85
2022-12-01T12:10:48.381Z,80.91
2022-12-01T12:13:16.999Z,81.14
2022-12-01T12:16:19.915Z,81.50
2022-12-01T12:19:12.161Z,81.99
2022-12-01T12:22:07.973Z,82.35
2022-12-01T12:25:03.484Z,82.35
2022-12-01T12:27:55.367Z,82.30
2022-12-01T12:30:53.356Z,82.22
2022-12-01T12:33:35.471Z,82.28
2022-12-01T12:36:46.690Z,82.73
2022-12-01T12:39:45.819Z,82.80
2022-12-01T12:42:40.573Z,82.82
2022-12-01T12:45:43.399Z,83.33
2022-12-01T12:48:36.015Z,83.65
2022-12-01T12:51:10.553Z,83.34
2022-12-01T12:53:49.765Z,84.05
2022-12-01T12:56:23.195Z,83.46
2022-12-01T12:59:02.821Z,83.42
2022-12-01T13:01:43.344Z,84.06
2022-12-01T13:04:23.448Z,83.58
2022-12-01T13:07:04.141Z,83.44
2022-12-01T13:09:40.755Z,83.14
2022-12-01T13:12:35.771Z,83.45
2022-12-01T13:15:17.877Z,83.59
2022-12-01T13:18:05.087Z,83.90
2022-12-01T13:20:37.762Z,83.39
2022-12-01T13:23:07.989Z,82.71
2022-12-01T13:25:40.561Z,83.16
2022-12-01T13:28:27.617Z,83.72
2022-12-01T13:31:09.760Z,83.49
2022-12-01T13:33:53.648Z,83.42
2022-12-01T13:36:45.763Z,83.27
2022-12-01T13:39:18.242Z,83.24
2022-12-01T13:41:56.834Z,83.13
2022-12-01T13:44:34.144Z,83.07
2022-12-01T13:47:11.727Z,82.95
2022-12-01T13:49:50.452Z,83.25
2022-12-01T13:52:22.268Z,83.56
2022-12-01T13:55:09.558Z,83.64
2022-12-01T13:57:47.937Z,83.73
2022-12-01T14:00:35.152Z,83.86
2022-12-01T14:03:13.093Z,84.08
2022-12-01T14:05:53.658Z,83.94
2022-12-01T14:08:38.147Z,84.17
2022-12-01T14:11:26.346Z,84.16
2022-12-01T14:14:22.749Z,84.36
2022-12-01T14:16:59.315Z,84.03
2022-12-01T14:19:52.518Z,83.90
2022-12-01T14:22:46.841Z,83.37
2022-12-01T14:25:23.779Z,83.52
2022-12-01T14:28:00.289Z,83.62
2022-12-01T14:30:45.841Z,83.87
2022-12-01T14:33:54.401Z,84.19
2022-12-01T14:36:57.181Z,83.82
2022-12-01T14:39:33.933Z,84.51
2022-12-01T14:42:42.555Z,84.72
2022-12-01T14:45:17.497Z,84.30
2022-12-01T14:48:28.321Z,84.89
2022-12-01T14:51:26.891Z,84.78
2022-12-01T14:53:57.535Z,84.18
2022-12-01T14:56:26.921Z,84.54
2022-12-01T14:59:02.075Z,84.87
2022-12-01T15:01:38.117Z,84.43
2022-12-01T15:04:06.885Z,84.96
2022-12-01T15:06:37.867Z,85.03
2022-12-01T15:09:35.470Z,85.67
2022-12-01T15:12:09.771Z,85.37
2022-12-01T15:14:50.786Z,85.90
2022-12-01T15:17:33.321Z,86.14
2022-12-01T15:20:02.199Z,85.69
2022-12-01T15:22:33.898Z,85.41
2022-12-01T15:25:15.706Z,85.33
2022-12-01T15:27:44.786Z,85.49
2022-12-01T15:30:17.064Z,85.66
2022-12-01T15:32:46.034Z,85.63
2022-12-01T15:35:23.858Z,85.58
2022-12-01T15:37:53.777Z,85.83
2022-12-01T15:43:25.654Z,86.03
2022-12-01T15:45:57.581Z,86.00
2022-12-01T15:48:35.886Z,85.73
2022-12-01T15:51:15.147Z,85.65
2022-12-01T15:54:01.246Z,85.54
2022-12-01T15:56:40.198Z,85.68
2022-12-01T15:59:14.992Z,85.36
2022-12-01T16:01:45.142Z,85.76
2022-12-01T16:04:27.278Z,86.05
2022-12-01T16:07:11.353Z,86.03
2022-12-01T16:10:02.387Z,85.84
2022-12-01T16:12:36.942Z,86.49
2022-12-01T16:15:08.310Z,86.16
2022-12-01T16:17:54.152Z,86.20
2022-12-01T16:20:22.718Z,86.05
2022-12-01T16:22:59.561Z,86.23
2022-12-01T16:25:40.951Z,86.41
2022-12-01T16:28:31.455Z,86.18
2022-12-01T16:31:00.206Z,86.13
2022-12-01T16:33:29.643Z,86.43
2022-12-01T16:36:00.312Z,86.21
2022-12-01T16:38:30.192Z,86.14
2022-12-01T16:41:01.333Z,86.45
2022-12-01T16:43:30.140Z,86.74
2022-12-01T16:46:06.773Z,87.18
2022-12-01T16:48:37.672Z,86.36
2022-12-01T16:51:14.608Z,85.99
2022-12-01T16:53:50.928Z,85.81
2022-12-01T16:56:21.287Z,86.04
2022-12-01T16:58:51.104Z,86.13
2022-12-01T17:01:19.892Z,86.04
2022-12-01T17:03:48.623Z,86.19
2022-12-01T17:06:43.013Z,85.78
2022-12-01T17:09:11.929Z,86.31
2022-12-01T17:11:40.447Z,86.47
2022-12-01T17:14:09.282Z,86.43
2022-12-01T17:16:38.242Z,86.33
2022-12-01T17:19:06.831Z,86.48
2022-12-01T17:21:36.744Z,86.71
2022-12-01T17:24:09.311Z,86.33
2022-12-01T17:26:39.073Z,86.45
2022-12-01T17:29:07.844Z,86.82
2022-12-01T17:31:36.840Z,87.10
2022-12-01T17:34:07.330Z,87.12
2022-12-01T17:36:36.767Z,87.07
2022-12-01T17:39:06.983Z,87.01
2022-12-01T17:41:37.072Z,87.14
2022-12-01T17:44:06.032Z,87.30
2022-12-01T17:46:38.629Z,87.26
2022-12-01T17:49:12.123Z,87.01
2022-12-01T17:51:42.591Z,86.97
2022-12-01T17:54:11.163Z,87.34
2022-12-01T17:56:39.778Z,87.01
2022-12-01T17:59:09.363Z,87.35
2022-12-01T18:01:43.653Z,86.96
2022-12-01T18:04:14.520Z,87.19
2022-12-01T18:06:43.540Z,87.42
2022-12-01T18:09:13.774Z,87.55
2022-12-01T18:11:42.459Z,87.37
2022-12-01T18:14:11.167Z,87.05
2022-12-01T18:16:39.780Z,87.63
2022-12-01T18:19:10.708Z,87.55
2022-12-01T18:21:40.440Z,87.43
2022-12-01T18:24:10.466Z,87.19
2022-12-01T18:26:41.259Z,86.85
2022-12-01T18:29:16.492Z,87.45
2022-12-01T18:31:45.966Z,87.35
2022-12-01T18:34:14.527Z,87.42
2022-12-01T18:36:43.040Z,88.10
2022-12-01T18:39:12.363Z,87.52
2022-12-01T18:41:40.924Z,87.68
2022-12-01T18:44:10.208Z,88.02
2022-12-01T18:46:39.572Z,87.54
2022-12-01T18:49:09.429Z,87.30
2022-12-01T18:51:38.912Z,87.37
2022-12-01T18:54:11.139Z,87.53
2022-12-01T18:56:40.007Z,87.82
2022-12-01T18:59:12.112Z,87.70
2022-12-01T19:01:44.002Z,87.54
2022-12-01T19:04:15.143Z,87.75
2022-12-01T19:06:45.984Z,87.69
2022-12-01T19:09:16.537Z,87.89
2022-12-01T19:11:45.376Z,87.81
2022-12-01T19:14:18.578Z,88.16
2022-12-01T19:16:47.879Z,88.00
2022-12-01T19:19:16.958Z,87.94
2022-12-01T19:21:50.551Z,88.17
2022-12-01T19:24:19.630Z,88.45
2022-12-01T19:26:48.297Z,88.10
2022-12-01T19:29:20.339Z,87.74
2022-12-01T19:31:49.994Z,88.05
2022-12-01T19:34:18.823Z,88.20
2022-12-01T19:36:53.827Z,88.46
2022-12-01T19:39:23.372Z,88.31
2022-12-01T19:41:52.056Z,88.16
2022-12-01T19:44:21.120Z,88.28
2022-12-01T19:46:50.677Z,88.29
2022-12-01T19:49:42.899Z,88.31
2022-12-01T19:52:11.654Z,88.47
2022-12-01T19:54:40.227Z,88.02
2022-12-01T19:57:08.900Z,88.14
2022-12-01T19:59:37.504Z,87.89
2022-12-01T20:02:06.564Z,88.01
2022-12-01T20:04:35.454Z,87.97
2022-12-01T20:07:07.875Z,87.95
2022-12-01T20:09:37.881Z,88.32
2022-12-01T20:12:06.713Z,88.15
2022-12-01T20:14:36.502Z,88.05
2022-12-01T20:17:05.104Z,88.21
2022-12-01T20:19:33.775Z,88.18
2022-12-01T20:22:02.576Z,88.28
2022-12-01T20:24:31.134Z,88.46
2022-12-01T20:26:59.729Z,88.57
2022-12-01T20:29:30.163Z,88.45
2022-12-01T20:32:03.360Z,88.54
2022-12-01T20:34:36.626Z,88.52
2022-12-01T20:37:06.146Z,88.58
2022-12-01T20:39:38.942Z,88.57
2022-12-01T20:42:09.948Z,88.38
2022-12-01T20:44:40.202Z,88.77
2022-12-01T20:47:08.858Z,88.79
2022-12-01T20:49:37.757Z,88.75
2022-12-01T20:52:06.666Z,88.73
2022-12-01T20:54:35.382Z,88.83
2022-12-01T20:57:08.952Z,88.90
2022-12-01T20:59:37.724Z,88.90
2022-12-01T21:02:07.389Z,88.82
2022-12-01T21:04:36.233Z,88.80
2022-12-01T21:07:16.536Z,88.73
2022-12-01T21:09:45.364Z,88.47
2022-12-01T21:12:36.069Z,88.96
2022-12-01T21:15:36.699Z,88.85
2022-12-01T21:18:52.007Z,88.96
2022-12-01T21:21:21.014Z,89.05
2022-12-01T21:24:14.196Z,89.16
2022-12-01T21:26:51.942Z,89.33
2022-12-01T21:29:32.854Z,89.39
2022-12-01T21:32:20.661Z,89.25
2022-12-01T21:34:50.263Z,89.42
2022-12-01T21:37:43.865Z,89.45
2022-12-01T21:40:24.834Z,89.75
2022-12-01T21:42:53.631Z,89.76
2022-12-01T21:45:30.369Z,89.65
2022-12-01T21:48:23.442Z,89.68
2022-12-01T21:53:59.226Z,89.80
2022-12-01T21:56:31.955Z,89.80
2022-12-01T21:59:15.859Z,89.61
2022-12-01T22:01:46.164Z,89.67
2022-12-01T22:04:32.152Z,89.72
2022-12-01T22:07:05.463Z,89.89
2022-12-01T22:09:37.277Z,90.02
2022-12-01T22:12:26.347Z,89.72
2022-12-01T22:15:01.768Z,89.90
2022-12-01T22:17:34.497Z,90.06
2022-12-01T22:20:22.621Z,89.64
2022-12-01T22:22:51.360Z,89.43
2022-12-01T22:25:29.360Z,89.35
2022-12-01T22:28:06.128Z,89.36
2022-12-01T22:30:34.872Z,89.44
2022-12-01T22:33:11.193Z,89.65
2022-12-01T22:35:59.011Z,89.64
2022-12-01T22:38:39.876Z,89.54
2022-12-01T22:41:18.006Z,89.69
2022-12-01T22:44:18.822Z,89.94
2022-12-01T22:46:47.449Z,89.95
2022-12-01T22:49:42.967Z,89.77
2022-12-01T22:52:32.015Z,89.76
2022-12-01T22:55:15.334Z,89.94
2022-12-01T22:57:44.975Z,89.83
2022-12-01T23:00:23.892Z,89.96
2022-12-01T23:02:56.588Z,89.98
2022-12-01T23:05:29.357Z,90.03
2022-12-01T23:07:57.927Z,89.90
2022-12-01T23:10:34.134Z,89.81
2022-12-01T23:13:19.093Z,89.61
2022-12-01T23:15:54.244Z,89.72
2022-12-01T23:18:33.697Z,89.59
2022-12-01T23:21:02.443Z,89.88
2022-12-01T23:23:36.932Z,89.74
2022-12-01T23:26:09.208Z,89.64
2022-12-01T23:28:39.310Z,89.78
2022-12-01T23:31:15.451Z,89.89
2022-12-01T23:33:44.067Z,90.30
2022-12-01T23:36:32.878Z,90.06
2022-12-01T23:39:07.547Z,90.21
2022-12-01T23:41:49.262Z,90.05
2022-12-01T23:44:47.094Z,90.00
2022-12-01T23:47:24.719Z,90.42
2022-12-01T23:50:03.207Z,90.29
2022-12-01T23:52:36.972Z,90.35
2022-12-01T23:55:21.274Z,90.33
2022-12-01T23:57:50.737Z,90.16
